Terminal Aerodrome Forecast
Issued by NWS

Home | Current Version | Previous Version | Graphics & Text | Print | Product List | Glossary On
Versions: 1 2 3 4 5 6 7 8 9 10 11 12 13 14 15 16
000
FTUS42 KMHX 260300 AAA
TAFISO
TAF AMD
KISO 260342Z 2604/2624 01004KT 5SM -RA BR SCT006 OVC015
      TEMPO 2604/2606 -RA BR OVC007
     FM260600 03004KT 3SM -RA BR OVC007
     FM261500 33010G17KT P6SM VCSH OVC020
     FM261900 32008G16KT P6SM BKN015 BKN050
      AMD LTD TO CLD VIS AND WIND=

USA.gov is the U.S. government's official web portal to all federal, state and local government web resources and services.